sensor_id;sensor_type;location;lat;lon;timestamp;pressure;altitude;pressure_sealevel;temperature;humidity
26192;BME280;13935;55.672;37.764;2024-02-15T00:00:34;101514.38;;;-9.66;100.00
26192;BME280;13935;55.672;37.764;2024-02-15T00:02:01;101500.03;;;-9.78;100.00
26192;BME280;13935;55.672;37.764;2024-02-15T00:04:30;101498.16;;;-9.71;100.00
26192;BME280;13935;55.672;37.764;2024-02-15T00:09:23;101485.50;;;-9.57;100.00
26192;BME280;13935;55.672;37.764;2024-02-15T00:11:25;101489.41;;;-9.60;100.00
26192;BME280;13935;55.672;37.764;2024-02-15T00:14:12;101480.34;;;-9.59;100.00
26192;BME280;13935;55.672;37.764;2024-02-15T00:15:52;101485.34;;;-9.69;100.00
26192;BME280;13935;55.672;37.764;2024-02-15T00:17:52;101485.41;;;-9.75;100.00
26192;BME280;13935;55.672;37.764;2024-02-15T00:19:16;101484.94;;;-9.66;100.00
26192;BME280;13935;55.672;37.764;2024-02-15T00:20:48;101480.09;;;-9.82;100.00
26192;BME280;13935;55.672;37.764;2024-02-15T00:22:32;101479.31;;;-9.88;100.00
26192;BME280;13935;55.672;37.764;2024-02-15T00:24:05;101510.75;;;-9.78;100.00
26192;BME280;13935;55.672;37.764;2024-02-15T00:25:48;101499.44;;;-9.80;100.00
26192;BME280;13935;55.672;37.764;2024-02-15T00:27:38;101481.44;;;-9.97;100.00
26192;BME280;13935;55.672;37.764;2024-02-15T00:29:19;101478.63;;;-9.78;100.00
26192;BME280;13935;55.672;37.764;2024-02-15T00:30:48;101471.03;;;-9.81;100.00
26192;BME280;13935;55.672;37.764;2024-02-15T00:32:20;101484.22;;;-9.85;100.00
26192;BME280;13935;55.672;37.764;2024-02-15T00:33:41;101487.69;;;-9.79;100.00
26192;BME280;13935;55.672;37.764;2024-02-15T00:35:38;101482.19;;;-9.83;100.00
26192;BME280;13935;55.672;37.764;2024-02-15T00:37:29;101480.44;;;-9.72;100.00
26192;BME280;13935;55.672;37.764;2024-02-15T00:39:18;101465.75;;;-9.93;100.00
26192;BME280;13935;55.672;37.764;2024-02-15T00:45:57;101471.25;;;-9.82;100.00
26192;BME280;13935;55.672;37.764;2024-02-15T00:48:25;101491.34;;;-9.73;100.00
26192;BME280;13935;55.672;37.764;2024-02-15T00:52:44;101473.09;;;-9.83;100.00
26192;BME280;13935;55.672;37.764;2024-02-15T00:57:08;101463.41;;;-10.01;100.00
26192;BME280;13935;55.672;37.764;2024-02-15T00:59:07;101460.81;;;-9.90;100.00
26192;BME280;13935;55.672;37.764;2024-02-15T01:00:14;101455.81;;;-9.80;100.00
26192;BME280;13935;55.672;37.764;2024-02-15T01:05:07;101492.47;;;-9.87;100.00
26192;BME280;13935;55.672;37.764;2024-02-15T01:07:06;101460.00;;;-9.90;100.00
26192;BME280;13935;55.672;37.764;2024-02-15T01:09:41;101448.47;;;-9.91;100.00
26192;BME280;13935;55.672;37.764;2024-02-15T01:11:30;101450.00;;;-9.77;100.00
26192;BME280;13935;55.672;37.764;2024-02-15T01:13:18;101451.88;;;-9.78;100.00
26192;BME280;13935;55.672;37.764;2024-02-15T01:15:36;101453.78;;;-9.84;100.00
26192;BME280;13935;55.672;37.764;2024-02-15T01:17:28;101458.28;;;-9.85;100.00
26192;BME280;13935;55.672;37.764;2024-02-15T01:18:50;101436.03;;;-9.79;100.00
26192;BME280;13935;55.672;37.764;2024-02-15T01:20:33;101440.25;;;-9.89;100.00
26192;BME280;13935;55.672;37.764;2024-02-15T01:22:17;101441.03;;;-9.89;100.00
26192;BME280;13935;55.672;37.764;2024-02-15T01:23:53;101447.81;;;-9.86;100.00
26192;BME280;13935;55.672;37.764;2024-02-15T01:25:34;101453.78;;;-9.84;100.00
26192;BME280;13935;55.672;37.764;2024-02-15T01:27:24;101437.84;;;-9.97;100.00
26192;BME280;13935;55.672;37.764;2024-02-15T01:30:05;101447.81;;;-9.86;100.00
26192;BME280;13935;55.672;37.764;2024-02-15T01:31:56;101442.31;;;-9.91;100.00
26192;BME280;13935;55.672;37.764;2024-02-15T01:34:03;101444.28;;;-9.81;100.00
26192;BME280;13935;55.672;37.764;2024-02-15T01:36:39;101448.97;;;-10.00;100.00
26192;BME280;13935;55.672;37.764;2024-02-15T01:40:16;101441.44;;;-9.85;100.00
26192;BME280;13935;55.672;37.764;2024-02-15T01:42:13;101443.41;;;-9.75;100.00
26192;BME280;13935;55.672;37.764;2024-02-15T01:43:43;101442.06;;;-9.83;100.00
26192;BME280;13935;55.672;37.764;2024-02-15T01:45:30;101444.13;;;-9.85;100.00
26192;BME280;13935;55.672;37.764;2024-02-15T01:46:53;101443.31;;;-9.86;100.00
26192;BME280;13935;55.672;37.764;2024-02-15T01:48:13;101444.28;;;-9.81;100.00
26192;BME280;13935;55.672;37.764;2024-02-15T01:51:57;101441.00;;;-9.83;100.00
26192;BME280;13935;55.672;37.764;2024-02-15T01:55:45;101444.28;;;-9.81;100.00
26192;BME280;13935;55.672;37.764;2024-02-15T01:57:39;101448.25;;;-9.59;100.00
26192;BME280;13935;55.672;37.764;2024-02-15T01:59:06;101447.81;;;-9.86;100.00
26192;BME280;13935;55.672;37.764;2024-02-15T02:00:54;101453.16;;;-9.86;100.00
26192;BME280;13935;55.672;37.764;2024-02-15T02:02:10;101447.56;;;-9.79;100.00
26192;BME280;13935;55.672;37.764;2024-02-15T02:03:21;101463.88;;;-9.86;100.00
26192;BME280;13935;55.672;37.764;2024-02-15T02:04:57;101443.94;;;-9.90;100.00
26192;BME280;13935;55.672;37.764;2024-02-15T02:07:05;101450.66;;;-9.82;100.00
26192;BME280;13935;55.672;37.764;2024-02-15T02:08:53;101452.13;;;-9.85;100.00
26192;BME280;13935;55.672;37.764;2024-02-15T02:10:37;101441.22;;;-9.84;100.00
26192;BME280;13935;55.672;37.764;2024-02-15T02:12:12;101458.69;;;-9.82;100.00
26192;BME280;13935;55.672;37.764;2024-02-15T02:13:25;101452.28;;;-9.74;100.00
26192;BME280;13935;55.672;37.764;2024-02-15T02:14:41;101457.78;;;-9.69;100.00
26192;BME280;13935;55.672;37.764;2024-02-15T02:16:23;101453.63;;;-9.89;100.00
26192;BME280;13935;55.672;37.764;2024-02-15T02:18:01;101463.88;;;-9.86;100.00
26192;BME280;13935;55.672;37.764;2024-02-15T02:19:46;101440.25;;;-9.89;100.00
26192;BME280;13935;55.672;37.764;2024-02-15T02:21:04;101445.03;;;-9.98;100.00
26192;BME280;13935;55.672;37.764;2024-02-15T02:23:29;101438.13;;;-9.81;100.00
26192;BME280;13935;55.672;37.764;2024-02-15T02:25:09;101446.72;;;-9.79;100.00
26192;BME280;13935;55.672;37.764;2024-02-15T02:26:30;101445.31;;;-9.82;100.00
26192;BME280;13935;55.672;37.764;2024-02-15T02:28:58;101433.84;;;-9.88;100.00
26192;BME280;13935;55.672;37.764;2024-02-15T02:32:14;101447.97;;;-9.82;100.00
26192;BME280;13935;55.672;37.764;2024-02-15T02:34:35;101446.34;;;-9.83;100.00
26192;BME280;13935;55.672;37.764;2024-02-15T02:38:26;101435.28;;;-9.86;100.00
26192;BME280;13935;55.672;37.764;2024-02-15T02:39:51;101444.28;;;-9.81;100.00
26192;BME280;13935;55.672;37.764;2024-02-15T02:41:55;101463.69;;;-9.91;100.00
26192;BME280;13935;55.672;37.764;2024-02-15T02:43:49;101467.97;;;-9.84;100.00
26192;BME280;13935;55.672;37.764;2024-02-15T02:45:04;101461.03;;;-9.91;100.00
26192;BME280;13935;55.672;37.764;2024-02-15T02:48:56;101461.44;;;-9.94;100.00
26192;BME280;13935;55.672;37.764;2024-02-15T02:50:31;101467.38;;;-9.86;100.00
26192;BME280;13935;55.672;37.764;2024-02-15T02:51:49;101461.31;;;-9.99;100.00
26192;BME280;13935;55.672;37.764;2024-02-15T02:53:12;101464.94;;;-9.94;100.00
26192;BME280;13935;55.672;37.764;2024-02-15T02:54:41;101468.81;;;-9.90;100.00
26192;BME280;13935;55.672;37.764;2024-02-15T02:56:09;101466.19;;;-9.96;100.00
26192;BME280;13935;55.672;37.764;2024-02-15T02:57:53;101475.00;;;-9.89;100.00
26192;BME280;13935;55.672;37.764;2024-02-15T02:59:47;101472.75;;;-9.92;100.00
26192;BME280;13935;55.672;37.764;2024-02-15T03:01:22;101456.19;;;-10.01;100.00
26192;BME280;13935;55.672;37.764;2024-02-15T03:02:51;101470.06;;;-9.92;100.00
26192;BME280;13935;55.672;37.764;2024-02-15T03:04:21;101468.81;;;-9.90;100.00
26192;BME280;13935;55.672;37.764;2024-02-15T03:05:41;101468.59;;;-9.88;100.00
26192;BME280;13935;55.672;37.764;2024-02-15T03:06:46;101465.00;;;-10.00;100.00
26192;BME280;13935;55.672;37.764;2024-02-15T03:08:08;101469.06;;;-9.91;100.00
26192;BME280;13935;55.672;37.764;2024-02-15T03:10:54;101462.50;;;-9.95;100.00
26192;BME280;13935;55.672;37.764;2024-02-15T03:12:54;101459.88;;;-10.02;100.00
26192;BME280;13935;55.672;37.764;2024-02-15T03:14:38;101468.06;;;-9.97;100.00
26192;BME280;13935;55.672;37.764;2024-02-15T03:16:01;101459.66;;;-10.00;100.00
26192;BME280;13935;55.672;37.764;2024-02-15T03:17:45;101466.19;;;-9.96;100.00
26192;BME280;13935;55.672;37.764;2024-02-15T03:19:00;101470.97;;;-9.98;100.00
26192;BME280;13935;55.672;37.764;2024-02-15T03:20:36;101482.34;;;-10.09;100.00
26192;BME280;13935;55.672;37.764;2024-02-15T03:21:55;101469.47;;;-9.94;100.00
26192;BME280;13935;55.672;37.764;2024-02-15T03:23:36;101477.25;;;-9.86;100.00
26192;BME280;13935;55.672;37.764;2024-02-15T03:25:52;101474.41;;;-9.91;100.00
26192;BME280;13935;55.672;37.764;2024-02-15T03:27:19;101480.16;;;-9.94;100.00
26192;BME280;13935;55.672;37.764;2024-02-15T03:28:37;101477.78;;;-10.02;100.00
26192;BME280;13935;55.672;37.764;2024-02-15T03:29:55;101469.16;;;-10.04;100.00
26192;BME280;13935;55.672;37.764;2024-02-15T03:31:10;101481.50;;;-10.03;100.00
26192;BME280;13935;55.672;37.764;2024-02-15T03:32:23;101478.88;;;-10.16;100.00
26192;BME280;13935;55.672;37.764;2024-02-15T03:33:38;101470.41;;;-10.07;100.00
26192;BME280;13935;55.672;37.764;2024-02-15T03:35:46;101471.03;;;-10.05;100.00
26192;BME280;13935;55.672;37.764;2024-02-15T03:36:52;101511.53;;;-10.01;100.00
26192;BME280;13935;55.672;37.764;2024-02-15T03:43:46;101472.44;;;-10.02;100.00
26192;BME280;13935;55.672;37.764;2024-02-15T03:45:44;101476.16;;;-10.03;100.00
26192;BME280;13935;55.672;37.764;2024-02-15T03:50:09;101473.19;;;-9.95;100.00
26192;BME280;13935;55.672;37.764;2024-02-15T03:52:08;101477.19;;;-10.04;100.00
26192;BME280;13935;55.672;37.764;2024-02-15T03:54:27;101495.28;;;-10.06;100.00
26192;BME280;13935;55.672;37.764;2024-02-15T03:57:15;101484.97;;;-10.03;100.00
26192;BME280;13935;55.672;37.764;2024-02-15T04:04:10;101482.19;;;-9.90;100.00
26192;BME280;13935;55.672;37.764;2024-02-15T04:11:37;101496.69;;;-10.04;100.00
26192;BME280;13935;55.672;37.764;2024-02-15T04:12:42;101482.34;;;-10.09;100.00
26192;BME280;13935;55.672;37.764;2024-02-15T04:13:45;101488.56;;;-10.15;100.00
26192;BME280;13935;55.672;37.764;2024-02-15T04:14:55;101493.03;;;-10.09;100.00
26192;BME280;13935;55.672;37.764;2024-02-15T04:16:01;101488.72;;;-10.10;100.00
26192;BME280;13935;55.672;37.764;2024-02-15T04:17:06;101483.13;;;-10.02;100.00
26192;BME280;13935;55.672;37.764;2024-02-15T04:18:09;101490.59;;;-10.11;100.00
26192;BME280;13935;55.672;37.764;2024-02-15T04:19:15;101498.81;;;-10.12;100.00
26192;BME280;13935;55.672;37.764;2024-02-15T04:20:18;101486.09;;;-10.17;100.00
26192;BME280;13935;55.672;37.764;2024-02-15T04:21:32;101495.09;;;-10.11;100.00
26192;BME280;13935;55.672;37.764;2024-02-15T04:22:37;101489.41;;;-10.21;100.00
26192;BME280;13935;55.672;37.764;2024-02-15T04:23:51;101499.66;;;-10.18;100.00
26192;BME280;13935;55.672;37.764;2024-02-15T04:25:00;101485.69;;;-10.20;100.00
26192;BME280;13935;55.672;37.764;2024-02-15T04:26:06;101496.69;;;-10.04;100.00
26192;BME280;13935;55.672;37.764;2024-02-15T04:27:09;101493.25;;;-10.11;100.00
26192;BME280;13935;55.672;37.764;2024-02-15T04:28:20;101492.19;;;-10.03;100.00
26192;BME280;13935;55.672;37.764;2024-02-15T04:29:22;101495.53;;;-10.14;100.00
26192;BME280;13935;55.672;37.764;2024-02-15T04:30:24;101490.59;;;-10.17;100.00
26192;BME280;13935;55.672;37.764;2024-02-15T04:31:26;101489.34;;;-10.08;100.00
26192;BME280;13935;55.672;37.764;2024-02-15T04:32:28;101493.03;;;-10.09;100.00
26192;BME280;13935;55.672;37.764;2024-02-15T04:33:32;101509.88;;;-10.02;100.00
26192;BME280;13935;55.672;37.764;2024-02-15T04:34:38;101498.22;;;-10.14;100.00
26192;BME280;13935;55.672;37.764;2024-02-15T04:35:40;101497.59;;;-10.16;100.00
26192;BME280;13935;55.672;37.764;2024-02-15T04:36:46;101497.25;;;-10.26;100.00
26192;BME280;13935;55.672;37.764;2024-02-15T04:37:51;101499.47;;;-10.23;100.00
26192;BME280;13935;55.672;37.764;2024-02-15T04:38:58;101516.53;;;-10.24;100.00
26192;BME280;13935;55.672;37.764;2024-02-15T04:40:01;101500.50;;;-10.18;100.00
26192;BME280;13935;55.672;37.764;2024-02-15T04:41:13;101497.16;;;-10.13;100.00
26192;BME280;13935;55.672;37.764;2024-02-15T04:42:23;101509.16;;;-10.29;100.00
26192;BME280;13935;55.672;37.764;2024-02-15T04:43:28;101503.41;;;-10.26;100.00
26192;BME280;13935;55.672;37.764;2024-02-15T04:44:32;101504.81;;;-10.23;100.00
26192;BME280;13935;55.672;37.764;2024-02-15T04:45:39;101507.50;;;-10.23;100.00
26192;BME280;13935;55.672;37.764;2024-02-15T04:46:41;101505.84;;;-10.24;100.00
26192;BME280;13935;55.672;37.764;2024-02-15T04:47:50;101494.81;;;-10.34;100.00
26192;BME280;13935;55.672;37.764;2024-02-15T04:48:54;101494.63;;;-10.39;100.00
26192;BME280;13935;55.672;37.764;2024-02-15T04:49:57;101493.34;;;-10.30;100.00
26192;BME280;13935;55.672;37.764;2024-02-15T04:51:03;101507.09;;;-10.27;100.00
26192;BME280;13935;55.672;37.764;2024-02-15T04:52:06;101502.97;;;-10.23;100.00
26192;BME280;13935;55.672;37.764;2024-02-15T04:53:11;101497.19;;;-10.20;100.00
26192;BME280;13935;55.672;37.764;2024-02-15T04:54:14;101497.16;;;-10.13;100.00
26192;BME280;13935;55.672;37.764;2024-02-15T04:55:32;101502.88;;;-10.03;100.00
26192;BME280;13935;55.672;37.764;2024-02-15T04:56:34;101500.06;;;-10.15;100.00
26192;BME280;13935;55.672;37.764;2024-02-15T04:57:38;101502.56;;;-10.20;100.00
26192;BME280;13935;55.672;37.764;2024-02-15T04:58:43;101503.41;;;-10.32;100.00
26192;BME280;13935;55.672;37.764;2024-02-15T04:59:50;101502.59;;;-10.33;100.00
26192;BME280;13935;55.672;37.764;2024-02-15T05:00:52;101497.25;;;-10.26;100.00
26192;BME280;13935;55.672;37.764;2024-02-15T05:02:03;101505.06;;;-10.31;100.00
26192;BME280;13935;55.672;37.764;2024-02-15T05:03:05;101501.13;;;-10.22;100.00
26192;BME280;13935;55.672;37.764;2024-02-15T05:04:14;101502.72;;;-10.15;100.00
26192;BME280;13935;55.672;37.764;2024-02-15T05:05:16;101501.94;;;-10.22;100.00
26192;BME280;13935;55.672;37.764;2024-02-15T05:06:18;101509.38;;;-10.24;100.00
26192;BME280;13935;55.672;37.764;2024-02-15T05:07:25;101505.84;;;-10.24;100.00
26192;BME280;13935;55.672;37.764;2024-02-15T05:08:29;101511.25;;;-10.37;100.00
26192;BME280;13935;55.672;37.764;2024-02-15T05:09:37;101505.84;;;-10.24;100.00
26192;BME280;13935;55.672;37.764;2024-02-15T05:10:39;101510.78;;;-10.28;100.00
26192;BME280;13935;55.672;37.764;2024-02-15T05:11:44;101502.16;;;-10.23;100.00
26192;BME280;13935;55.672;37.764;2024-02-15T05:12:50;101515.69;;;-10.18;100.00
26192;BME280;13935;55.672;37.764;2024-02-15T05:13:52;101508.28;;;-10.16;100.00
26192;BME280;13935;55.672;37.764;2024-02-15T05:14:57;101509.31;;;-10.17;100.00
26192;BME280;13935;55.672;37.764;2024-02-15T05:15:59;101512.56;;;-10.02;100.00
26192;BME280;13935;55.672;37.764;2024-02-15T05:17:02;101508.13;;;-10.21;100.00
26192;BME280;13935;55.672;37.764;2024-02-15T05:18:16;101509.16;;;-10.22;100.00
26192;BME280;13935;55.672;37.764;2024-02-15T05:19:21;101511.59;;;-10.14;100.00
26192;BME280;13935;55.672;37.764;2024-02-15T05:20:29;101509.94;;;-10.15;100.00
26192;BME280;13935;55.672;37.764;2024-02-15T05:21:32;101508.31;;;-10.23;100.00
26192;BME280;13935;55.672;37.764;2024-02-15T05:22:35;101512.44;;;-10.20;100.00
26192;BME280;13935;55.672;37.764;2024-02-15T05:23:40;101511.41;;;-10.26;100.00
26192;BME280;13935;55.672;37.764;2024-02-15T05:24:44;101508.34;;;-10.29;100.00
26192;BME280;13935;55.672;37.764;2024-02-15T05:25:47;101519.03;;;-10.29;100.00
26192;BME280;13935;55.672;37.764;2024-02-15T05:26:49;101527.28;;;-10.37;100.00
26192;BME280;13935;55.672;37.764;2024-02-15T05:27:55;101527.91;;;-10.35;100.00
26192;BME280;13935;55.672;37.764;2024-02-15T05:29:01;101527.72;;;-10.40;100.00
26192;BME280;13935;55.672;37.764;2024-02-15T05:30:03;101532.59;;;-10.24;100.00
26192;BME280;13935;55.672;37.764;2024-02-15T05:31:12;101524.44;;;-10.36;100.00
26192;BME280;13935;55.672;37.764;2024-02-15T05:32:18;101532.22;;;-10.34;100.00
26192;BME280;13935;55.672;37.764;2024-02-15T05:33:24;101519.03;;;-10.29;100.00
26192;BME280;13935;55.672;37.764;2024-02-15T05:34:31;101547.41;;;-10.35;100.00
26192;BME280;13935;55.672;37.764;2024-02-15T05:35:34;101533.66;;;-10.38;100.00
26192;BME280;13935;55.672;37.764;2024-02-15T05:36:41;101537.13;;;-10.31;100.00
26192;BME280;13935;55.672;37.764;2024-02-15T05:37:46;101520.72;;;-10.41;100.00
26192;BME280;13935;55.672;37.764;2024-02-15T05:38:53;101529.78;;;-10.42;100.00
26192;BME280;13935;55.672;37.764;2024-02-15T05:39:58;101528.72;;;-10.35;100.00
26192;BME280;13935;55.672;37.764;2024-02-15T05:41:01;101528.97;;;-10.43;100.00
26192;BME280;13935;55.672;37.764;2024-02-15T05:42:06;101533.91;;;-10.52;100.00
26192;BME280;13935;55.672;37.764;2024-02-15T05:43:12;101536.75;;;-10.41;100.00
26192;BME280;13935;55.672;37.764;2024-02-15T05:44:18;101542.91;;;-10.41;100.00
26192;BME280;13935;55.672;37.764;2024-02-15T05:46:28;101537.97;;;-10.31;100.00
26192;BME280;13935;55.672;37.764;2024-02-15T05:47:31;101522.78;;;-10.37;100.00
26192;BME280;13935;55.672;37.764;2024-02-15T05:48:37;101540.41;;;-10.29;100.00
26192;BME280;13935;55.672;37.764;2024-02-15T05:49:39;101540.41;;;-10.29;100.00
26192;BME280;13935;55.672;37.764;2024-02-15T05:50:41;101539.63;;;-10.30;100.00
26192;BME280;13935;55.672;37.764;2024-02-15T05:51:53;101549.06;;;-10.27;100.00
26192;BME280;13935;55.672;37.764;2024-02-15T05:53:12;101552.38;;;-10.38;100.00
26192;BME280;13935;55.672;37.764;2024-02-15T05:54:16;101542.06;;;-10.28;100.00
26192;BME280;13935;55.672;37.764;2024-02-15T05:55:25;101553.97;;;-10.24;100.00
26192;BME280;13935;55.672;37.764;2024-02-15T05:56:30;101546.13;;;-10.19;100.00
26192;BME280;13935;55.672;37.764;2024-02-15T05:57:33;101549.41;;;-10.17;100.00
26192;BME280;13935;55.672;37.764;2024-02-15T05:58:35;101554.59;;;-10.29;100.00
26192;BME280;13935;55.672;37.764;2024-02-15T05:59:39;101554.41;;;-10.27;100.00
26192;BME280;13935;55.672;37.764;2024-02-15T06:00:46;101568.00;;;-10.35;100.00
26192;BME280;13935;55.672;37.764;2024-02-15T06:01:49;101557.66;;;-10.25;100.00
26192;BME280;13935;55.672;37.764;2024-02-15T06:02:51;101564.25;;;-10.21;100.00
26192;BME280;13935;55.672;37.764;2024-02-15T06:03:54;101569.59;;;-10.21;100.00
26192;BME280;13935;55.672;37.764;2024-02-15T06:04:57;101574.50;;;-10.18;100.00
26192;BME280;13935;55.672;37.764;2024-02-15T06:06:05;101586.03;;;-10.24;100.00
26192;BME280;13935;55.672;37.764;2024-02-15T06:07:11;101572.47;;;-10.16;100.00
26192;BME280;13935;55.672;37.764;2024-02-15T06:08:15;101576.19;;;-10.24;100.00
26192;BME280;13935;55.672;37.764;2024-02-15T06:09:18;101579.06;;;-10.25;100.00
26192;BME280;13935;55.672;37.764;2024-02-15T06:10:24;101582.34;;;-10.23;100.00
26192;BME280;13935;55.672;37.764;2024-02-15T06:11:36;101582.78;;;-10.26;100.00
26192;BME280;13935;55.672;37.764;2024-02-15T06:12:42;101587.31;;;-10.33;100.00
26192;BME280;13935;55.672;37.764;2024-02-15T06:13:44;101586.25;;;-10.32;100.00
26192;BME280;13935;55.672;37.764;2024-02-15T06:14:48;101588.50;;;-10.23;100.00
26192;BME280;13935;55.672;37.764;2024-02-15T06:15:50;101593.84;;;-10.16;100.00
26192;BME280;13935;55.672;37.764;2024-02-15T06:16:55;101584.59;;;-10.14;100.00
26192;BME280;13935;55.672;37.764;2024-02-15T06:17:59;101596.75;;;-10.24;100.00
26192;BME280;13935;55.672;37.764;2024-02-15T06:19:02;101601.28;;;-10.31;100.00
26192;BME280;13935;55.672;37.764;2024-02-15T06:20:14;101599.22;;;-10.29;100.00
26192;BME280;13935;55.672;37.764;2024-02-15T06:21:25;101591.00;;;-10.21;100.00
26192;BME280;13935;55.672;37.764;2024-02-15T06:22:30;101596.13;;;-10.20;100.00
26192;BME280;13935;55.672;37.764;2024-02-15T06:23:33;101591.81;;;-10.27;100.00
26192;BME280;13935;55.672;37.764;2024-02-15T06:24:39;101590.59;;;-10.31;100.00
26192;BME280;13935;55.672;37.764;2024-02-15T06:25:47;101581.28;;;-10.09;100.00
26192;BME280;13935;55.672;37.764;2024-02-15T06:26:49;101583.16;;;-10.16;100.00
26192;BME280;13935;55.672;37.764;2024-02-15T06:28:04;101589.31;;;-10.16;100.00
26192;BME280;13935;55.672;37.764;2024-02-15T06:29:15;101602.09;;;-10.24;100.00
26192;BME280;13935;55.672;37.764;2024-02-15T06:30:36;101582.31;;;-10.10;100.00
26192;BME280;13935;55.672;37.764;2024-02-15T06:31:58;101590.50;;;-10.05;100.00
26192;BME280;13935;55.672;37.764;2024-02-15T06:33:29;101598.75;;;-10.13;100.00
26192;BME280;13935;55.672;37.764;2024-02-15T06:34:51;101592.72;;;-9.96;100.00
26192;BME280;13935;55.672;37.764;2024-02-15T06:36:13;101588.88;;;-10.06;100.00
26192;BME280;13935;55.672;37.764;2024-02-15T06:37:38;101587.63;;;-10.04;100.00
26192;BME280;13935;55.672;37.764;2024-02-15T06:38:59;101600.84;;;-10.15;100.00
26192;BME280;13935;55.672;37.764;2024-02-15T06:40:24;101596.25;;;-10.02;100.00
26192;BME280;13935;55.672;37.764;2024-02-15T06:41:29;101594.34;;;-9.95;100.00
26192;BME280;13935;55.672;37.764;2024-02-15T06:42:35;101589.22;;;-9.96;100.00
26192;BME280;13935;55.672;37.764;2024-02-15T06:43:37;101600.00;;;-10.09;100.00
26192;BME280;13935;55.672;37.764;2024-02-15T06:44:42;101603.03;;;-9.99;100.00
26192;BME280;13935;55.672;37.764;2024-02-15T06:45:46;101593.81;;;-10.03;100.00
26192;BME280;13935;55.672;37.764;2024-02-15T06:46:53;101587.44;;;-10.02;100.00
26192;BME280;13935;55.672;37.764;2024-02-15T06:47:55;101587.13;;;-9.94;100.00
26192;BME280;13935;55.672;37.764;2024-02-15T06:48:59;101607.56;;;-10.00;100.00
26192;BME280;13935;55.672;37.764;2024-02-15T06:50:02;101597.13;;;-10.14;100.00
26192;BME280;13935;55.672;37.764;2024-02-15T06:51:07;101597.09;;;-10.01;100.00
26192;BME280;13935;55.672;37.764;2024-02-15T06:52:15;101593.78;;;-9.97;100.00
26192;BME280;13935;55.672;37.764;2024-02-15T06:53:17;101586.41;;;-10.01;100.00
26192;BME280;13935;55.672;37.764;2024-02-15T06:54:22;101590.09;;;-10.02;100.00
26192;BME280;13935;55.672;37.764;2024-02-15T06:55:28;101596.47;;;-10.03;100.00
26192;BME280;13935;55.672;37.764;2024-02-15T06:56:30;101608.16;;;-9.98;100.00
26192;BME280;13935;55.672;37.764;2024-02-15T06:57:33;101592.56;;;-10.07;100.00
26192;BME280;13935;55.672;37.764;2024-02-15T06:58:36;101583.88;;;-9.96;100.00
26192;BME280;13935;55.672;37.764;2024-02-15T06:59:38;101584.53;;;-10.07;100.00
26192;BME280;13935;55.672;37.764;2024-02-15T07:00:42;101588.06;;;-10.13;100.00
26192;BME280;13935;55.672;37.764;2024-02-15T07:01:44;101592.19;;;-10.11;100.00
26192;BME280;13935;55.672;37.764;2024-02-15T07:02:47;101611.09;;;-10.06;100.00
26192;BME280;13935;55.672;37.764;2024-02-15T07:03:51;101599.59;;;-10.13;100.00
26192;BME280;13935;55.672;37.764;2024-02-15T07:05:00;101604.06;;;-10.00;100.00
26192;BME280;13935;55.672;37.764;2024-02-15T07:06:06;101593.41;;;-10.07;100.00
26192;BME280;13935;55.672;37.764;2024-02-15T07:07:08;101597.31;;;-10.16;100.00
26192;BME280;13935;55.672;37.764;2024-02-15T07:08:13;101604.09;;;-10.07;100.00
26192;BME280;13935;55.672;37.764;2024-02-15T07:09:16;101611.09;;;-10.12;100.00
26192;BME280;13935;55.672;37.764;2024-02-15T07:10:25;101590.56;;;-10.18;100.00
26192;BME280;13935;55.672;37.764;2024-02-15T07:11:27;101597.66;;;-9.93;100.00
26192;BME280;13935;55.672;37.764;2024-02-15T07:12:31;101604.00;;;-9.87;100.00
26192;BME280;13935;55.672;37.764;2024-02-15T07:13:36;101594.97;;;-9.93;100.00
26192;BME280;13935;55.672;37.764;2024-02-15T07:14:50;101603.66;;;-9.97;100.00
26192;BME280;13935;55.672;37.764;2024-02-15T07:15:56;101603.03;;;-9.99;100.00
26192;BME280;13935;55.672;37.764;2024-02-15T07:16:58;101617.84;;;-9.97;100.00
26192;BME280;13935;55.672;37.764;2024-02-15T07:18:04;101599.06;;;-9.90;100.00
26192;BME280;13935;55.672;37.764;2024-02-15T07:19:09;101611.50;;;-10.02;100.00
26192;BME280;13935;55.672;37.764;2024-02-15T07:20:14;101596.47;;;-10.03;100.00
26192;BME280;13935;55.672;37.764;2024-02-15T07:21:21;101600.91;;;-9.84;100.00
26192;BME280;13935;55.672;37.764;2024-02-15T07:22:29;101597.44;;;-9.91;100.00
26192;BME280;13935;55.672;37.764;2024-02-15T07:23:33;101611.78;;;-9.80;100.00
26192;BME280;13935;55.672;37.764;2024-02-15T07:24:40;101601.22;;;-10.05;100.00
26192;BME280;13935;55.672;37.764;2024-02-15T07:25:50;101599.34;;;-9.98;100.00
26192;BME280;13935;55.672;37.764;2024-02-15T07:26:56;101602.16;;;-9.93;100.00
26192;BME280;13935;55.672;37.764;2024-02-15T07:27:58;101602.78;;;-9.91;100.00
26192;BME280;13935;55.672;37.764;2024-02-15T07:29:01;101598.22;;;-9.84;100.00
26192;BME280;13935;55.672;37.764;2024-02-15T07:30:04;101607.06;;;-9.78;100.00
26192;BME280;13935;55.672;37.764;2024-02-15T07:31:07;101598.75;;;-9.70;100.00
26192;BME280;13935;55.672;37.764;2024-02-15T07:32:09;101598.56;;;-9.68;100.00
26192;BME280;13935;55.672;37.764;2024-02-15T07:33:14;101604.72;;;-9.68;100.00
26192;BME280;13935;55.672;37.764;2024-02-15T07:34:21;101593.84;;;-9.73;100.00
26192;BME280;13935;55.672;37.764;2024-02-15T07:35:23;101592.94;;;-9.60;100.00
26192;BME280;13935;55.672;37.764;2024-02-15T07:36:26;101599.31;;;-9.55;100.00